ブリスベン の空港の天気 - METARとTAF

ブリスベン空港 ( YBBN / BNE ) - オーストラリア クイーンズランド州ブリスベン
飛行場実況気象(Metar)
観測時間01/22 04:00 AEST (01/21 18:00 UTC)
風向・風速南 2m/s
視程10km以上
天気現象
少しの雲 雲底高度 550m
気温22℃
湿度88%
気圧1011hPa
METARYBBN 211800Z 19004KT 9999 FEW018 22/20 Q1011
過去の天気等 Google飛行場航空写真 Wunderground天気予報

過去48時間のMETAR

飛行場予報(TAF)
発表時間: 1/22 03:23 AEST (1/21 17:23 UTC)
予報対象時間: 22日4時 AEST ~ 23日10時 AEST
風向・風速南 3m/s
視程10km以上
天気現象弱いしゅう雨
全天の4割程度の雲 雲底高度 550m
全天の8割程度の雲 雲底高度 1,520m
22日7時 AEST から
風向・風速南東 4m/s
視程10km以上
天気現象弱いしゅう雨
全天の4割程度の雲 雲底高度 610m
全天の8割程度の雲 雲底高度 1,520m
22日10時 AEST から
風向・風速東 6m/s
視程10km以上
全天の4割程度の雲 雲底高度 910m
全天の4割程度の雲 雲底高度 1,830m
22日13時 AEST から
風向・風速東北東 7m/s
視程10km以上
少しの雲 雲底高度 1,070m
22日20時 AEST から
風向・風速東 4m/s
視程10km以上
少しの雲 雲底高度 760m
23日2時 AEST から
風向・風速南南西 3m/s
視程10km以上
全天の4割程度の雲 雲底高度 760m
TAF YBBN 211723Z 2118/2224 19005KT 9999 -SHRA SCT018 BKN050
FM212100 13008KT 9999 -SHRA SCT020 BKN050
FM220000 09012KT 9999 SCT030 SCT060
FM220300 06014KT 9999 FEW035
FM221000 08008KT 9999 FEW025
FM221600 20005KT 9999 SCT025